Time;durP1;ratioP1;P1;durP2;ratioP2;P2;SDS_P1;SDS_P2;PMS_P1;PMS_P2;Temp;Humidity;BMP_temperature;BMP_pressure;BME280_temperature;BME280_humidity;BME280_pressure;Samples;Min_cycle;Max_cycle;Signal;HPM_P1;HPM_P2
2022/10/07 00:01:28;;;;;;;100.35;24.38;;;;;;;;;;4914468;29;20511;-67
2022/10/07 00:03:55;;;;;;;90.75;24.55;;;;;;;;;;4918976;29;20043;-67
2022/10/07 00:06:21;;;;;;;84.95;23.75;;;;;;;;;;4920535;29;20130;-65
2022/10/07 00:08:49;;;;;;;87.13;25.83;;;;;;;;;;4920574;29;20128;-65
2022/10/07 00:11:16;;;;;;;79.60;24.45;;;;;;;;;;4920332;29;20040;-64
2022/10/07 00:13:43;;;;;;;92.35;25.00;;;;;;;;;;4916689;29;20547;-64
2022/10/07 00:16:14;;;;;;;89.53;22.80;;;;;;;;;;4931935;29;20082;-64
2022/10/07 00:18:41;;;;;;;95.03;23.58;;;;;;;;;;4923604;29;20047;-64
2022/10/07 00:21:09;;;;;;;96.22;23.33;;;;;;;;;;4903220;29;20127;-69
2022/10/07 00:23:36;;;;;;;75.30;21.23;;;;;;;;;;4923628;29;20107;-71
2022/10/07 00:26:04;;;;;;;71.18;21.98;;;;;;;;;;4922318;29;20044;-71
2022/10/07 00:28:30;;;;;;;95.63;24.02;;;;;;;;;;4931636;29;20039;-71
2022/10/07 00:31:02;;;;;;;67.72;20.88;;;;;;;;;;4905315;29;20079;-71
2022/10/07 00:33:31;;;;;;;100.38;23.70;;;;;;;;;;4923587;29;20076;-71
2022/10/07 00:35:57;;;;;;;70.88;22.30;;;;;;;;;;4923698;29;20568;-71
2022/10/07 00:38:24;;;;;;;94.45;22.92;;;;;;;;;;4903490;29;20524;-71
2022/10/07 00:40:50;;;;;;;93.20;22.58;;;;;;;;;;4915605;29;20046;-67
2022/10/07 00:43:30;;;;;;;106.43;23.17;;;;;;;;;;4902062;29;20047;-68
2022/10/07 00:45:59;;;;;;;91.95;23.42;;;;;;;;;;4926223;29;20040;-68
2022/10/07 00:48:27;;;;;;;66.10;19.88;;;;;;;;;;4925441;29;20037;-68
2022/10/07 00:50:55;;;;;;;63.22;21.50;;;;;;;;;;4923810;29;20071;-68
2022/10/07 00:53:22;;;;;;;80.43;20.23;;;;;;;;;;4923192;29;20055;-68
2022/10/07 00:55:49;;;;;;;82.53;21.73;;;;;;;;;;4903220;29;20532;-68
2022/10/07 00:58:18;;;;;;;79.70;21.17;;;;;;;;;;4919233;29;20044;-68
2022/10/07 01:00:44;;;;;;;68.05;20.02;;;;;;;;;;4914812;29;20413;-68
2022/10/07 01:03:11;;;;;;;74.80;21.13;;;;;;;;;;4916681;29;20051;-66
2022/10/07 01:05:37;;;;;;;58.88;19.40;;;;;;;;;;4930843;29;20385;-66
2022/10/07 01:08:04;;;;;;;84.80;21.77;;;;;;;;;;4921849;29;20055;-67
2022/10/07 01:10:43;;;;;;;79.10;20.13;;;;;;;;;;4919275;29;20080;-66
2022/10/07 01:13:25;;;;;;;58.65;19.55;;;;;;;;;;4930808;29;20054;-67
2022/10/07 01:16:12;;;;;;;65.80;18.63;;;;;;;;;;4900764;29;20613;-69
2022/10/07 01:18:57;;;;;;;86.55;19.67;;;;;;;;;;4923149;29;20164;-71
2022/10/07 01:21:42;;;;;;;95.88;20.63;;;;;;;;;;4922624;29;20131;-70
2022/10/07 01:24:15;;;;;;;75.32;18.95;;;;;;;;;;4930001;29;20107;-69
2022/10/07 01:27:00;;;;;;;65.07;17.40;;;;;;;;;;4908202;29;20080;-68
2022/10/07 01:29:32;;;;;;;71.82;17.08;;;;;;;;;;4901766;29;20119;-68
2022/10/07 01:32:11;;;;;;;72.88;17.63;;;;;;;;;;4903875;29;20098;-69
2022/10/07 01:34:39;;;;;;;73.00;18.40;;;;;;;;;;4918476;29;20043;-69
2022/10/07 01:37:08;;;;;;;63.05;16.67;;;;;;;;;;4919790;29;20046;-68
2022/10/07 01:39:41;;;;;;;64.70;16.55;;;;;;;;;;4901225;29;20079;-67
2022/10/07 01:42:08;;;;;;;43.88;15.70;;;;;;;;;;4905437;29;20039;-67
2022/10/07 01:44:35;;;;;;;49.63;16.48;;;;;;;;;;4909718;29;20040;-67
2022/10/07 01:47:01;;;;;;;72.35;17.98;;;;;;;;;;4910224;29;20040;-68
2022/10/07 01:49:28;;;;;;;78.55;16.92;;;;;;;;;;4918279;29;20040;-70
2022/10/07 01:52:02;;;;;;;63.90;17.27;;;;;;;;;;4904209;29;20044;-68
2022/10/07 01:54:31;;;;;;;56.58;16.17;;;;;;;;;;4901023;29;20552;-67
2022/10/07 01:57:20;;;;;;;65.35;16.70;;;;;;;;;;4905141;29;20059;-68
2022/10/07 01:59:50;;;;;;;98.43;19.08;;;;;;;;;;4890657;29;20048;-66
2022/10/07 02:02:41;;;;;;;59.55;18.40;;;;;;;;;;4905615;29;20048;-66
2022/10/07 02:05:12;;;;;;;81.03;18.17;;;;;;;;;;4900506;29;20059;-66
2022/10/07 02:07:52;;;;;;;91.63;18.67;;;;;;;;;;4932758;29;20052;-68
2022/10/07 02:10:33;;;;;;;97.00;19.25;;;;;;;;;;4900668;29;20156;-68
2022/10/07 02:13:12;;;;;;;68.53;17.60;;;;;;;;;;4920810;29;20068;-67
2022/10/07 02:15:54;;;;;;;81.80;18.45;;;;;;;;;;4921814;29;20134;-67
2022/10/07 02:18:21;;;;;;;73.05;17.67;;;;;;;;;;4901522;29;20052;-68
2022/10/07 02:20:49;;;;;;;85.85;19.20;;;;;;;;;;4921954;29;20059;-68
2022/10/07 02:23:18;;;;;;;68.88;20.20;;;;;;;;;;4904551;29;20039;-69
2022/10/07 02:25:46;;;;;;;84.72;19.55;;;;;;;;;;4915576;29;20045;-69
2022/10/07 02:28:14;;;;;;;99.43;20.02;;;;;;;;;;4901278;29;20040;-70
2022/10/07 02:30:44;;;;;;;62.70;18.88;;;;;;;;;;4916347;29;20051;-70
2022/10/07 02:33:11;;;;;;;67.60;17.55;;;;;;;;;;4908405;29;20413;-68
2022/10/07 02:35:58;;;;;;;95.15;18.80;;;;;;;;;;4903113;29;20051;-68
2022/10/07 02:38:25;;;;;;;54.85;16.20;;;;;;;;;;4909940;29;20500;-68
2022/10/07 02:41:05;;;;;;;101.88;20.35;;;;;;;;;;4924150;29;20051;-66
2022/10/07 02:43:35;;;;;;;96.47;19.88;;;;;;;;;;4912722;29;20062;-67
2022/10/07 02:46:06;;;;;;;89.25;19.63;;;;;;;;;;4903987;29;20138;-67
2022/10/07 02:48:36;;;;;;;63.95;18.48;;;;;;;;;;4911062;29;20052;-67
2022/10/07 02:51:05;;;;;;;67.38;18.40;;;;;;;;;;4905183;29;20048;-68
2022/10/07 02:53:32;;;;;;;126.43;22.30;;;;;;;;;;4899485;29;20052;-67
2022/10/07 02:56:00;;;;;;;85.07;20.63;;;;;;;;;;4902631;29;20463;-69
2022/10/07 02:58:28;;;;;;;87.85;20.63;;;;;;;;;;4900065;29;20051;-69
2022/10/07 03:00:57;;;;;;;89.45;22.77;;;;;;;;;;4920277;29;20120;-69
2022/10/07 03:03:24;;;;;;;69.97;20.05;;;;;;;;;;4904379;29;20135;-70
2022/10/07 03:05:57;;;;;;;91.13;22.17;;;;;;;;;;4900237;29;20072;-68
2022/10/07 03:08:24;;;;;;;67.97;22.00;;;;;;;;;;4932096;29;20051;-69
2022/10/07 03:10:51;;;;;;;81.85;19.70;;;;;;;;;;4914981;29;20127;-68
2022/10/07 03:13:17;;;;;;;80.45;21.08;;;;;;;;;;4900057;29;20044;-68
2022/10/07 03:15:50;;;;;;;89.75;20.73;;;;;;;;;;4920527;29;20095;-68
2022/10/07 03:18:28;;;;;;;75.20;20.48;;;;;;;;;;4900248;29;20493;-66
2022/10/07 03:21:17;;;;;;;76.22;20.83;;;;;;;;;;4931148;29;20078;-67
2022/10/07 03:23:48;;;;;;;86.28;21.75;;;;;;;;;;4902858;29;20054;-70
2022/10/07 03:26:16;;;;;;;96.82;23.30;;;;;;;;;;4911056;29;20076;-69
2022/10/07 03:28:44;;;;;;;93.00;23.98;;;;;;;;;;4899884;29;20036;-69
2022/10/07 03:31:13;;;;;;;86.78;24.17;;;;;;;;;;4900462;29;20470;-70
2022/10/07 03:33:44;;;;;;;74.60;22.70;;;;;;;;;;4911630;29;20131;-71
2022/10/07 03:36:12;;;;;;;94.60;23.38;;;;;;;;;;4924794;29;20053;-67
2022/10/07 03:38:41;;;;;;;98.30;24.27;;;;;;;;;;4932757;29;20481;-66
2022/10/07 03:41:09;;;;;;;91.22;23.48;;;;;;;;;;4910899;29;20552;-66
2022/10/07 03:43:36;;;;;;;107.88;25.30;;;;;;;;;;4911047;29;20055;-68
2022/10/07 03:46:04;;;;;;;112.65;26.48;;;;;;;;;;4903350;29;20052;-69
2022/10/07 03:48:34;;;;;;;100.07;24.95;;;;;;;;;;4913863;29;20497;-69
2022/10/07 03:51:01;;;;;;;86.72;24.52;;;;;;;;;;4908846;29;20139;-68
2022/10/07 03:53:29;;;;;;;114.05;25.00;;;;;;;;;;4904489;29;20048;-68
2022/10/07 03:55:58;;;;;;;104.53;27.58;;;;;;;;;;4935525;29;20095;-68
2022/10/07 03:58:26;;;;;;;98.03;26.17;;;;;;;;;;4903127;29;20516;-68
2022/10/07 04:01:02;;;;;;;78.82;24.15;;;;;;;;;;4906259;29;20044;-69
2022/10/07 04:03:29;;;;;;;90.43;25.90;;;;;;;;;;4903087;29;20052;-66
2022/10/07 04:05:58;;;;;;;110.78;28.70;;;;;;;;;;4902850;29;20072;-64
2022/10/07 04:08:28;;;;;;;80.55;27.13;;;;;;;;;;4903075;29;20498;-65
2022/10/07 04:10:56;;;;;;;112.20;27.75;;;;;;;;;;4904250;29;20372;-65
2022/10/07 04:13:23;;;;;;;121.90;28.30;;;;;;;;;;4902936;29;20092;-65
2022/10/07 04:15:51;;;;;;;109.18;30.45;;;;;;;;;;4914223;29;20091;-65
2022/10/07 04:18:19;;;;;;;109.40;30.85;;;;;;;;;;4905753;29;20043;-65
2022/10/07 04:20:45;;;;;;;133.75;30.70;;;;;;;;;;4906670;29;20044;-65
2022/10/07 04:23:12;;;;;;;108.70;29.42;;;;;;;;;;4902584;29;20461;-65
2022/10/07 04:25:43;;;;;;;113.10;30.70;;;;;;;;;;4901885;29;20496;-65
2022/10/07 04:28:17;;;;;;;119.10;33.00;;;;;;;;;;4918518;29;20059;-65
2022/10/07 04:30:52;;;;;;;118.47;32.22;;;;;;;;;;4902617;29;20052;-65
2022/10/07 04:33:25;;;;;;;137.48;34.67;;;;;;;;;;4911482;29;20066;-65
2022/10/07 04:35:54;;;;;;;123.05;33.60;;;;;;;;;;4908476;29;20218;-65
2022/10/07 04:38:21;;;;;;;103.45;30.90;;;;;;;;;;4902184;29;20083;-65
2022/10/07 04:40:54;;;;;;;116.05;29.98;;;;;;;;;;4907995;29;20044;-65
2022/10/07 04:43:22;;;;;;;129.05;31.35;;;;;;;;;;4902830;29;20146;-65
2022/10/07 04:46:05;;;;;;;108.30;31.92;;;;;;;;;;4909398;29;20512;-66
2022/10/07 04:48:35;;;;;;;103.50;31.38;;;;;;;;;;4917402;29;20056;-67
2022/10/07 04:51:03;;;;;;;121.88;34.10;;;;;;;;;;4913323;29;20051;-67
2022/10/07 04:53:30;;;;;;;113.85;32.50;;;;;;;;;;4932394;29;20039;-66
2022/10/07 04:55:57;;;;;;;128.02;34.90;;;;;;;;;;4935042;29;20171;-68
2022/10/07 04:58:24;;;;;;;117.72;32.70;;;;;;;;;;4917355;29;20090;-68
2022/10/07 05:00:51;;;;;;;130.15;33.45;;;;;;;;;;4904306;29;20131;-67
2022/10/07 05:03:22;;;;;;;120.03;33.78;;;;;;;;;;4933607;29;20036;-67
2022/10/07 05:05:50;;;;;;;125.97;32.55;;;;;;;;;;4905573;29;20051;-67
2022/10/07 05:08:18;;;;;;;114.53;31.45;;;;;;;;;;4912922;29;20050;-68
2022/10/07 05:10:45;;;;;;;111.20;33.85;;;;;;;;;;4901232;29;20044;-67
2022/10/07 05:13:15;;;;;;;137.77;34.70;;;;;;;;;;4902570;29;20054;-70
2022/10/07 05:15:52;;;;;;;104.50;34.10;;;;;;;;;;4902152;29;20044;-70
2022/10/07 05:18:19;;;;;;;133.75;37.20;;;;;;;;;;4910009;29;20048;-68
2022/10/07 05:20:47;;;;;;;127.65;36.58;;;;;;;;;;4912622;29;20143;-68
2022/10/07 05:23:15;;;;;;;109.38;33.95;;;;;;;;;;4913014;29;20044;-71
2022/10/07 05:25:43;;;;;;;124.50;36.65;;;;;;;;;;4932748;29;20055;-68
2022/10/07 05:28:10;;;;;;;128.10;35.33;;;;;;;;;;4902955;29;20044;-68
2022/10/07 05:30:38;;;;;;;124.38;39.28;;;;;;;;;;4912156;29;20039;-68
2022/10/07 05:33:06;;;;;;;116.40;37.38;;;;;;;;;;4905943;29;20126;-69
2022/10/07 05:35:33;;;;;;;137.35;38.67;;;;;;;;;;4905302;29;20071;-68
2022/10/07 05:38:00;;;;;;;173.48;42.80;;;;;;;;;;4931210;29;20048;-68
2022/10/07 05:40:26;;;;;;;124.40;40.45;;;;;;;;;;4924320;29;20114;-68
2022/10/07 05:42:53;;;;;;;142.43;42.55;;;;;;;;;;4904759;29;20036;-68
2022/10/07 05:45:21;;;;;;;151.20;44.13;;;;;;;;;;4905007;29;20048;-69
2022/10/07 05:47:48;;;;;;;149.95;41.90;;;;;;;;;;4922512;29;20051;-67
2022/10/07 05:50:15;;;;;;;154.75;44.97;;;;;;;;;;4901092;29;20039;-68
2022/10/07 05:52:44;;;;;;;136.23;43.22;;;;;;;;;;4915781;29;20728;-70
2022/10/07 05:55:12;;;;;;;157.38;45.72;;;;;;;;;;4901829;29;20051;-70
2022/10/07 05:57:40;;;;;;;185.65;49.53;;;;;;;;;;4911256;29;20134;-76
2022/10/07 06:00:07;;;;;;;157.45;46.83;;;;;;;;;;4910786;29;20067;-68
2022/10/07 06:02:38;;;;;;;155.25;48.33;;;;;;;;;;4929051;29;20079;-69
2022/10/07 06:05:07;;;;;;;183.70;52.33;;;;;;;;;;4933405;29;20496;-69
2022/10/07 06:07:33;;;;;;;170.73;50.55;;;;;;;;;;4914298;29;20055;-69
2022/10/07 06:15:33;;;;;;;146.20;43.17;;;;;;;;;;4901736;29;20556;-69
2022/10/07 06:18:00;;;;;;;124.47;38.40;;;;;;;;;;4900658;29;20044;-68
2022/10/07 06:20:27;;;;;;;109.00;37.88;;;;;;;;;;4900589;29;20091;-69
2022/10/07 06:22:57;;;;;;;101.57;40.72;;;;;;;;;;4901840;29;20043;-69
2022/10/07 06:25:24;;;;;;;119.90;37.47;;;;;;;;;;4900154;29;20050;-69
2022/10/07 06:27:53;;;;;;;91.97;26.60;;;;;;;;;;4904225;29;20084;-69
2022/10/07 06:30:22;;;;;;;41.25;18.63;;;;;;;;;;4900860;29;20036;-69
2022/10/07 06:32:48;;;;;;;62.20;18.17;;;;;;;;;;4904403;29;20055;-67
2022/10/07 06:35:15;;;;;;;62.40;16.65;;;;;;;;;;4911983;29;20040;-70
2022/10/07 06:37:42;;;;;;;93.55;17.80;;;;;;;;;;4915702;29;20052;-69
2022/10/07 06:40:10;;;;;;;46.15;15.23;;;;;;;;;;4901866;29;20107;-69
2022/10/07 06:42:37;;;;;;;53.00;14.75;;;;;;;;;;4900376;29;20127;-69
2022/10/07 06:45:42;;;;;;;77.40;14.95;;;;;;;;;;4911373;29;20056;-69
2022/10/07 06:48:10;;;;;;;40.03;13.80;;;;;;;;;;4904431;29;20087;-70
2022/10/07 06:50:37;;;;;;;64.35;15.63;;;;;;;;;;4900773;29;20075;-69
2022/10/07 06:53:04;;;;;;;56.10;14.40;;;;;;;;;;4898366;29;20036;-69
2022/10/07 06:55:32;;;;;;;80.22;16.20;;;;;;;;;;4915585;29;20051;-69
2022/10/07 06:57:59;;;;;;;49.17;13.98;;;;;;;;;;4896947;29;20081;-70
2022/10/07 07:00:26;;;;;;;51.30;14.50;;;;;;;;;;4921127;29;20048;-70
2022/10/07 07:02:53;;;;;;;72.50;16.05;;;;;;;;;;4906656;29;20039;-69
2022/10/07 07:05:21;;;;;;;81.93;16.40;;;;;;;;;;4910877;29;20044;-69
2022/10/07 07:07:48;;;;;;;91.93;16.50;;;;;;;;;;4923522;29;20650;-69
2022/10/07 07:10:15;;;;;;;66.47;15.65;;;;;;;;;;4924752;29;20044;-69
2022/10/07 07:12:45;;;;;;;60.67;14.77;;;;;;;;;;4907863;29;20460;-69
2022/10/07 07:15:12;;;;;;;105.13;17.83;;;;;;;;;;4902563;29;20098;-68
2022/10/07 07:17:39;;;;;;;57.28;14.45;;;;;;;;;;4920104;29;20047;-71
2022/10/07 07:20:07;;;;;;;61.72;15.55;;;;;;;;;;4902052;29;20071;-71
2022/10/07 07:22:34;;;;;;;81.13;15.88;;;;;;;;;;4915725;29;20047;-71
2022/10/07 07:25:00;;;;;;;44.33;12.45;;;;;;;;;;4901698;29;20400;-68
2022/10/07 07:27:27;;;;;;;78.18;15.45;;;;;;;;;;4930980;29;20058;-69
2022/10/07 07:29:54;;;;;;;49.47;13.20;;;;;;;;;;4903899;29;20433;-68
2022/10/07 07:32:21;;;;;;;47.58;13.80;;;;;;;;;;4914749;29;20500;-69
2022/10/07 07:34:47;;;;;;;45.70;12.52;;;;;;;;;;4913737;29;20067;-69
2022/10/07 07:37:18;;;;;;;98.32;15.82;;;;;;;;;;4927639;29;20048;-67
2022/10/07 07:39:49;;;;;;;56.85;12.55;;;;;;;;;;4929581;29;20071;-68
2022/10/07 07:42:16;;;;;;;42.83;11.25;;;;;;;;;;4923865;29;20028;-71
2022/10/07 07:44:42;;;;;;;66.78;11.80;;;;;;;;;;4902415;29;20040;-69
2022/10/07 07:47:15;;;;;;;63.53;11.50;;;;;;;;;;4914735;29;20043;-70
2022/10/07 07:49:42;;;;;;;77.07;12.60;;;;;;;;;;4898008;29;20090;-69
2022/10/07 07:52:13;;;;;;;66.57;11.30;;;;;;;;;;4899286;29;20056;-70
2022/10/07 07:54:44;;;;;;;58.42;10.90;;;;;;;;;;4909840;29;20138;-70
2022/10/07 07:57:10;;;;;;;52.00;9.82;;;;;;;;;;4906574;29;20059;-70
2022/10/07 07:59:37;;;;;;;64.47;10.32;;;;;;;;;;4898199;29;20068;-70
2022/10/07 08:02:05;;;;;;;64.90;9.45;;;;;;;;;;4901101;29;20044;-70
2022/10/07 08:04:33;;;;;;;64.03;9.93;;;;;;;;;;4898483;29;20048;-70
2022/10/07 08:07:00;;;;;;;55.25;9.18;;;;;;;;;;4902089;29;20468;-70
2022/10/07 08:09:27;;;;;;;44.95;8.63;;;;;;;;;;4907981;29;20054;-69
2022/10/07 08:11:55;;;;;;;46.30;7.72;;;;;;;;;;4926844;29;20047;-69
2022/10/07 08:14:22;;;;;;;44.65;8.05;;;;;;;;;;4930973;29;20675;-69
2022/10/07 08:16:50;;;;;;;52.55;8.20;;;;;;;;;;4916203;29;20134;-70
2022/10/07 08:19:18;;;;;;;44.90;7.85;;;;;;;;;;4899812;29;20038;-70
2022/10/07 08:21:44;;;;;;;47.95;8.32;;;;;;;;;;4899459;29;20114;-72
2022/10/07 08:24:16;;;;;;;43.80;7.07;;;;;;;;;;4903183;29;20040;-70
2022/10/07 08:26:43;;;;;;;52.67;7.35;;;;;;;;;;4933110;29;20502;-70
2022/10/07 08:29:12;;;;;;;31.65;5.88;;;;;;;;;;4929914;29;20043;-70
2022/10/07 08:31:41;;;;;;;54.83;8.23;;;;;;;;;;4898529;29;20079;-70
2022/10/07 08:34:08;;;;;;;58.35;8.70;;;;;;;;;;4922493;29;20040;-70
2022/10/07 08:36:35;;;;;;;39.90;6.43;;;;;;;;;;4924566;29;20039;-69
2022/10/07 08:39:03;;;;;;;32.70;5.45;;;;;;;;;;4923786;29;20060;-70
2022/10/07 08:41:32;;;;;;;72.70;8.05;;;;;;;;;;4923165;29;20047;-70
2022/10/07 08:44:06;;;;;;;32.67;5.30;;;;;;;;;;4920738;29;20500;-69
2022/10/07 08:46:36;;;;;;;61.42;6.93;;;;;;;;;;4926576;29;20115;-70
2022/10/07 08:49:12;;;;;;;59.13;7.30;;;;;;;;;;4905417;29;20044;-69
2022/10/07 08:51:49;;;;;;;43.03;5.85;;;;;;;;;;4924025;29;20036;-70
2022/10/07 08:54:18;;;;;;;53.58;7.22;;;;;;;;;;4930230;29;20067;-70
2022/10/07 08:56:46;;;;;;;33.05;5.32;;;;;;;;;;4931563;29;20044;-70
2022/10/07 08:59:16;;;;;;;45.15;5.65;;;;;;;;;;4922605;29;20036;-70
2022/10/07 09:01:48;;;;;;;53.88;5.82;;;;;;;;;;4918839;29;20048;-70
2022/10/07 09:04:44;;;;;;;34.33;4.60;;;;;;;;;;4920760;29;20070;-70
2022/10/07 09:07:27;;;;;;;54.25;5.85;;;;;;;;;;4894359;29;20632;-70
2022/10/07 09:10:18;;;;;;;57.40;5.75;;;;;;;;;;4877601;29;20513;-69
2022/10/07 09:13:07;;;;;;;41.28;4.68;;;;;;;;;;4879245;29;20055;-70
2022/10/07 09:15:40;;;;;;;55.28;5.80;;;;;;;;;;4873276;29;20144;-69
2022/10/07 09:18:30;;;;;;;56.40;6.03;;;;;;;;;;4879668;29;20109;-69
2022/10/07 09:20:57;;;;;;;44.95;5.22;;;;;;;;;;4879431;29;20655;-69
2022/10/07 09:23:30;;;;;;;41.35;5.85;;;;;;;;;;4880729;29;20072;-69
2022/10/07 09:25:56;;;;;;;41.50;5.28;;;;;;;;;;4879758;29;20340;-69
2022/10/07 09:28:32;;;;;;;31.00;4.57;;;;;;;;;;4876595;29;20576;-70
2022/10/07 09:30:59;;;;;;;31.92;4.13;;;;;;;;;;4887072;29;20061;-69
2022/10/07 09:33:28;;;;;;;42.13;5.40;;;;;;;;;;4881708;29;20061;-70
2022/10/07 09:35:56;;;;;;;21.25;3.22;;;;;;;;;;4889921;29;20049;-70
2022/10/07 09:38:34;;;;;;;48.58;5.07;;;;;;;;;;4878853;29;20049;-70
2022/10/07 09:41:15;;;;;;;37.22;5.40;;;;;;;;;;4879718;29;20482;-70
2022/10/07 09:43:48;;;;;;;58.13;7.25;;;;;;;;;;4897834;29;20102;-69
2022/10/07 09:46:45;;;;;;;41.38;4.85;;;;;;;;;;4933961;29;20046;-71
2022/10/07 09:49:27;;;;;;;45.65;5.32;;;;;;;;;;4922010;29;20056;-70
2022/10/07 09:52:01;;;;;;;31.13;5.30;;;;;;;;;;4921962;29;20058;-70
2022/10/07 09:54:29;;;;;;;21.63;3.97;;;;;;;;;;4922702;29;20119;-70
2022/10/07 09:56:57;;;;;;;39.25;4.43;;;;;;;;;;4927064;29;20044;-70
2022/10/07 09:59:30;;;;;;;65.07;11.18;;;;;;;;;;4933397;29;20067;-70
2022/10/07 10:02:12;;;;;;;55.75;10.80;;;;;;;;;;4918729;29;20099;-70
2022/10/07 10:04:45;;;;;;;73.55;11.57;;;;;;;;;;4918107;29;20037;-70
2022/10/07 10:07:16;;;;;;;47.17;9.97;;;;;;;;;;4934131;29;20063;-69
2022/10/07 10:10:12;;;;;;;54.05;6.63;;;;;;;;;;4922045;29;20491;-69
2022/10/07 10:12:49;;;;;;;65.28;7.40;;;;;;;;;;4906512;29;20048;-70
2022/10/07 10:15:23;;;;;;;43.47;5.88;;;;;;;;;;4922122;29;20128;-70
2022/10/07 10:17:50;;;;;;;43.35;4.88;;;;;;;;;;4925447;29;20126;-69
2022/10/07 10:20:22;;;;;;;53.42;5.93;;;;;;;;;;4932980;29;20408;-70
2022/10/07 10:22:49;;;;;;;69.40;9.30;;;;;;;;;;4932532;29;20040;-70
2022/10/07 10:28:29;;;;;;;36.17;4.53;;;;;;;;;;4932412;29;20122;-70
2022/10/07 10:30:58;;;;;;;35.70;4.18;;;;;;;;;;4921168;29;20092;-71
2022/10/07 10:33:25;;;;;;;39.60;4.70;;;;;;;;;;4921857;29;20449;-67
2022/10/07 10:36:04;;;;;;;52.08;5.93;;;;;;;;;;4921725;29;20040;-70
2022/10/07 10:38:33;;;;;;;38.38;4.90;;;;;;;;;;4920908;29;20075;-67
2022/10/07 10:41:14;;;;;;;36.75;4.78;;;;;;;;;;4918680;29;20135;-70
2022/10/07 10:43:47;;;;;;;45.97;5.53;;;;;;;;;;4917057;29;20060;-67
2022/10/07 10:46:38;;;;;;;89.10;8.23;;;;;;;;;;4925305;29;20401;-67
2022/10/07 10:49:09;;;;;;;33.58;5.35;;;;;;;;;;4931640;29;20054;-67
2022/10/07 10:51:54;;;;;;;37.38;5.45;;;;;;;;;;4922789;29;20036;-67
2022/10/07 10:54:27;;;;;;;35.25;4.50;;;;;;;;;;4903994;29;20054;-67
2022/10/07 10:57:03;;;;;;;28.45;4.20;;;;;;;;;;4921330;29;20115;-70
2022/10/07 10:59:39;;;;;;;41.15;5.32;;;;;;;;;;4921223;29;20035;-70
2022/10/07 11:02:18;;;;;;;56.53;5.53;;;;;;;;;;4918790;29;20441;-67
2022/10/07 11:04:48;;;;;;;44.42;4.65;;;;;;;;;;4932152;29;20039;-70
2022/10/07 11:07:19;;;;;;;35.42;4.78;;;;;;;;;;4918249;29;20045;-67
2022/10/07 11:09:50;;;;;;;31.98;4.03;;;;;;;;;;4920919;29;20484;-67
2022/10/07 11:12:31;;;;;;;34.22;4.82;;;;;;;;;;4921097;29;20075;-68
2022/10/07 11:15:00;;;;;;;46.83;5.38;;;;;;;;;;4921118;29;20051;-67
2022/10/07 11:17:32;;;;;;;44.10;4.95;;;;;;;;;;4920806;29;20028;-67
2022/10/07 11:20:10;;;;;;;43.88;5.13;;;;;;;;;;4917851;29;20044;-67
2022/10/07 11:22:40;;;;;;;68.22;5.93;;;;;;;;;;4916231;29;20715;-70
2022/10/07 11:25:13;;;;;;;40.70;4.53;;;;;;;;;;4919742;29;20103;-67
2022/10/07 11:27:40;;;;;;;51.28;5.05;;;;;;;;;;4920945;29;20488;-67
2022/10/07 11:30:13;;;;;;;46.78;4.82;;;;;;;;;;4928623;29;20040;-67
2022/10/07 11:33:00;;;;;;;42.72;4.28;;;;;;;;;;4929890;29;20039;-70
2022/10/07 11:35:28;;;;;;;58.90;6.00;;;;;;;;;;4920533;29;20135;-69
2022/10/07 11:38:13;;;;;;;56.78;5.47;;;;;;;;;;4916850;29;20056;-69
2022/10/07 11:40:42;;;;;;;41.08;4.57;;;;;;;;;;4916483;29;20540;-69
2022/10/07 11:43:47;;;;;;;22.25;2.90;;;;;;;;;;4918972;29;20048;-69
2022/10/07 11:46:16;;;;;;;31.60;3.25;;;;;;;;;;4835798;29;20619;-69
2022/10/07 11:48:45;;;;;;;50.28;4.93;;;;;;;;;;4821987;29;20047;-69
2022/10/07 11:51:36;;;;;;;39.78;4.35;;;;;;;;;;4821276;29;20152;-69
2022/10/07 11:54:05;;;;;;;63.95;5.50;;;;;;;;;;4816605;29;20095;-69
2022/10/07 11:56:37;;;;;;;24.20;3.10;;;;;;;;;;4821817;29;20042;-70
2022/10/07 11:59:05;;;;;;;27.63;3.20;;;;;;;;;;4821575;29;20401;-68
2022/10/07 12:01:35;;;;;;;54.35;5.85;;;;;;;;;;4818929;29;20042;-67
2022/10/07 12:04:19;;;;;;;60.95;5.55;;;;;;;;;;4820490;29;20651;-69
2022/10/07 12:07:04;;;;;;;53.03;5.07;;;;;;;;;;4834735;29;20053;-70
2022/10/07 12:09:49;;;;;;;39.55;4.15;;;;;;;;;;4823036;29;20046;-68
2022/10/07 12:12:16;;;;;;;32.10;3.67;;;;;;;;;;4825121;29;20054;-68
2022/10/07 12:14:56;;;;;;;34.47;3.55;;;;;;;;;;4825194;29;20054;-68
2022/10/07 12:17:27;;;;;;;48.63;4.90;;;;;;;;;;4888729;29;20043;-68
2022/10/07 12:20:11;;;;;;;29.52;3.22;;;;;;;;;;4934973;29;20040;-68
2022/10/07 12:22:38;;;;;;;59.85;5.38;;;;;;;;;;4933655;29;20040;-68
2022/10/07 12:25:24;;;;;;;43.00;4.18;;;;;;;;;;4922448;29;20052;-68
2022/10/07 12:27:50;;;;;;;55.20;4.85;;;;;;;;;;4923831;29;20148;-68
2022/10/07 12:30:37;;;;;;;44.33;5.00;;;;;;;;;;4929799;29;20044;-69
2022/10/07 12:33:13;;;;;;;49.05;5.13;;;;;;;;;;4930122;29;20047;-69
2022/10/07 12:35:40;;;;;;;29.48;3.65;;;;;;;;;;4923653;29;20747;-69
2022/10/07 12:38:23;;;;;;;72.53;6.68;;;;;;;;;;4919160;29;20058;-72
2022/10/07 12:40:57;;;;;;;46.45;4.70;;;;;;;;;;4920283;29;20506;-70
2022/10/07 12:43:30;;;;;;;66.38;6.20;;;;;;;;;;4931547;29;20126;-69
2022/10/07 12:45:57;;;;;;;39.60;3.88;;;;;;;;;;4933349;29;20400;-69
2022/10/07 12:48:26;;;;;;;31.17;3.20;;;;;;;;;;4926459;29;20452;-69
2022/10/07 12:50:55;;;;;;;80.05;6.95;;;;;;;;;;4923495;29;20052;-69
2022/10/07 12:53:23;;;;;;;43.95;4.72;;;;;;;;;;4922257;29;20063;-69
2022/10/07 12:55:51;;;;;;;25.40;3.42;;;;;;;;;;4918176;29;20079;-69
2022/10/07 13:01:15;;;;;;;55.95;5.63;;;;;;;;;;4934025;29;20040;-69
2022/10/07 13:04:00;;;;;;;40.75;4.32;;;;;;;;;;4923133;29;20078;-69
2022/10/07 13:07:02;;;;;;;63.15;5.80;;;;;;;;;;4922157;29;20040;-69
2022/10/07 13:09:47;;;;;;;78.82;6.43;;;;;;;;;;4857739;29;20053;-69
2022/10/07 13:12:24;;;;;;;83.45;7.15;;;;;;;;;;4853753;29;20087;-69
2022/10/07 13:14:53;;;;;;;54.50;5.45;;;;;;;;;;4853233;29;20053;-69
2022/10/07 13:17:38;;;;;;;56.35;5.68;;;;;;;;;;4853176;29;20057;-69
2022/10/07 13:20:23;;;;;;;37.97;4.63;;;;;;;;;;4853711;29;20078;-69
2022/10/07 13:22:49;;;;;;;44.70;4.70;;;;;;;;;;4855971;29;20132;-69
2022/10/07 13:25:18;;;;;;;44.72;4.53;;;;;;;;;;4855472;29;20062;-69
2022/10/07 13:27:55;;;;;;;50.63;5.80;;;;;;;;;;4858670;29;20530;-69
2022/10/07 13:30:33;;;;;;;47.58;4.95;;;;;;;;;;4860122;29;20144;-69
2022/10/07 13:33:18;;;;;;;53.78;5.32;;;;;;;;;;4860600;29;20049;-69
2022/10/07 13:35:45;;;;;;;58.03;5.50;;;;;;;;;;4860065;29;20060;-69
2022/10/07 13:38:21;;;;;;;46.20;4.93;;;;;;;;;;4859646;29;20053;-69
2022/10/07 13:40:57;;;;;;;44.03;5.00;;;;;;;;;;4856613;29;20140;-69
2022/10/07 13:43:25;;;;;;;54.25;5.07;;;;;;;;;;4886632;29;20459;-69
2022/10/07 13:45:52;;;;;;;55.38;5.75;;;;;;;;;;4926565;29;20039;-69
2022/10/07 13:48:20;;;;;;;54.35;5.13;;;;;;;;;;4916393;29;20276;-69
2022/10/07 13:50:49;;;;;;;53.85;5.03;;;;;;;;;;4933419;29;20059;-69
2022/10/07 13:53:20;;;;;;;49.55;4.50;;;;;;;;;;4933362;29;20623;-69
2022/10/07 13:55:47;;;;;;;72.28;6.78;;;;;;;;;;4917959;29;20047;-70
2022/10/07 13:58:14;;;;;;;66.07;5.65;;;;;;;;;;4920216;29;20044;-69
2022/10/07 14:00:43;;;;;;;48.70;5.03;;;;;;;;;;4922388;29;20511;-69
2022/10/07 14:03:13;;;;;;;38.10;4.22;;;;;;;;;;4922391;29;20044;-69
2022/10/07 14:05:50;;;;;;;37.45;4.13;;;;;;;;;;4905651;29;20043;-66
2022/10/07 14:08:20;;;;;;;47.38;5.13;;;;;;;;;;4932210;29;20087;-70
2022/10/07 14:10:55;;;;;;;64.13;5.40;;;;;;;;;;4917870;29;20035;-71
2022/10/07 14:13:22;;;;;;;39.05;4.25;;;;;;;;;;4916590;29;20058;-72
2022/10/07 14:15:50;;;;;;;97.38;8.02;;;;;;;;;;4931496;29;20514;-77
2022/10/07 14:18:17;;;;;;;47.80;4.50;;;;;;;;;;4918370;29;20127;-72
2022/10/07 14:20:50;;;;;;;55.95;5.22;;;;;;;;;;4919567;29;20046;-68
2022/10/07 14:23:17;;;;;;;56.53;5.60;;;;;;;;;;4918986;29;20126;-73
2022/10/07 14:25:47;;;;;;;55.00;5.57;;;;;;;;;;4917003;29;20052;-72
2022/10/07 14:28:20;;;;;;;38.80;4.53;;;;;;;;;;4918629;29;20044;-70
2022/10/07 14:37:02;;;;;;;84.78;7.30;;;;;;;;;;4930154;29;20059;-72
2022/10/07 14:39:34;;;;;;;71.93;6.93;;;;;;;;;;4916223;28;20072;-66
2022/10/07 14:42:00;;;;;;;50.20;4.82;;;;;;;;;;4915718;29;20045;-68
2022/10/07 14:44:27;;;;;;;80.25;7.35;;;;;;;;;;4915144;29;20051;-65
2022/10/07 14:47:12;;;;;;;72.75;6.40;;;;;;;;;;4923486;29;20040;-74
2022/10/07 14:49:42;;;;;;;99.03;8.18;;;;;;;;;;4914578;29;20592;-72
2022/10/07 14:52:22;;;;;;;49.42;4.35;;;;;;;;;;4929733;29;20044;-69
2022/10/07 14:54:50;;;;;;;80.38;7.35;;;;;;;;;;4916952;29;20630;-71
2022/10/07 14:57:16;;;;;;;57.35;5.88;;;;;;;;;;4918567;28;20127;-69
2022/10/07 14:59:44;;;;;;;49.33;6.03;;;;;;;;;;4925547;29;20037;-68
2022/10/07 15:02:11;;;;;;;74.57;6.65;;;;;;;;;;4916925;29;20492;-68
2022/10/07 15:04:38;;;;;;;112.40;9.02;;;;;;;;;;4914606;29;20055;-71